Time;durP1;ratioP1;P1;durP2;ratioP2;P2;SDS_P1;SDS_P2;PMS_P1;PMS_P2;Temp;Humidity;BMP_temperature;BMP_pressure;BME280_temperature;BME280_humidity;BME280_pressure;Samples;Min_cycle;Max_cycle;Signal;HPM_P1;HPM_P2
2023/05/25 00:01:15;;;;;;;6.72;4.50;;;;;;;;;;5112702;28;20043;-75
2023/05/25 00:04:15;;;;;;;6.50;4.38;;;;;;;;;;5109544;28;20028;-80
2023/05/25 00:06:44;;;;;;;6.03;4.70;;;;;;;;;;5114267;28;20066;-76
2023/05/25 00:09:10;;;;;;;7.47;4.70;;;;;;;;;;5114083;28;20452;-75
2023/05/25 00:11:36;;;;;;;6.55;4.50;;;;;;;;;;5111069;28;20032;-74
2023/05/25 00:14:02;;;;;;;5.85;4.55;;;;;;;;;;5113956;28;20096;-74
2023/05/25 00:16:28;;;;;;;7.57;4.65;;;;;;;;;;5113591;28;20020;-75
2023/05/25 00:18:56;;;;;;;6.15;4.70;;;;;;;;;;5112579;28;20028;-75
2023/05/25 00:21:23;;;;;;;6.07;4.85;;;;;;;;;;5112407;28;20031;-74
2023/05/25 00:23:49;;;;;;;6.28;4.68;;;;;;;;;;5113422;28;20028;-76
2023/05/25 00:26:15;;;;;;;6.30;4.90;;;;;;;;;;5113655;28;20027;-76
2023/05/25 00:28:41;;;;;;;5.35;4.68;;;;;;;;;;5113504;28;20016;-75
2023/05/25 00:31:07;;;;;;;6.30;5.20;;;;;;;;;;5107426;28;20493;-77
2023/05/25 00:33:33;;;;;;;5.90;4.97;;;;;;;;;;5113418;28;20068;-75
2023/05/25 00:35:59;;;;;;;6.65;4.80;;;;;;;;;;5113603;28;20157;-75
2023/05/25 00:38:26;;;;;;;8.73;5.22;;;;;;;;;;5113932;28;20024;-76
2023/05/25 00:40:56;;;;;;;6.50;5.50;;;;;;;;;;5109421;28;20032;-81
2023/05/25 00:43:22;;;;;;;9.80;5.30;;;;;;;;;;5113065;28;20031;-81
2023/05/25 00:45:50;;;;;;;7.13;5.32;;;;;;;;;;5112348;28;20016;-80
2023/05/25 00:48:16;;;;;;;6.95;5.60;;;;;;;;;;5113677;28;20032;-81
2023/05/25 00:50:44;;;;;;;7.05;5.70;;;;;;;;;;5113699;28;20026;-80
2023/05/25 00:53:11;;;;;;;9.80;5.60;;;;;;;;;;5113716;28;20034;-81
2023/05/25 00:55:51;;;;;;;7.03;5.57;;;;;;;;;;5113370;28;20424;-81
2023/05/25 00:58:20;;;;;;;7.03;5.65;;;;;;;;;;5110395;28;20031;-80
2023/05/25 01:00:48;;;;;;;8.70;5.53;;;;;;;;;;5111850;28;20028;-80
2023/05/25 01:03:16;;;;;;;8.45;5.35;;;;;;;;;;5113329;27;20019;-79
2023/05/25 01:05:45;;;;;;;8.27;5.97;;;;;;;;;;5113625;28;20019;-80
2023/05/25 01:08:13;;;;;;;8.45;5.97;;;;;;;;;;5112145;28;20103;-79
2023/05/25 01:10:40;;;;;;;8.25;6.00;;;;;;;;;;5107468;28;20025;-79
2023/05/25 01:13:08;;;;;;;10.23;6.40;;;;;;;;;;5113132;28;20027;-80
2023/05/25 01:15:34;;;;;;;8.27;6.13;;;;;;;;;;5113571;28;20023;-80
2023/05/25 01:18:01;;;;;;;9.15;6.00;;;;;;;;;;5111233;28;20022;-78
2023/05/25 01:20:28;;;;;;;8.27;6.20;;;;;;;;;;5112715;28;20044;-80
2023/05/25 01:22:57;;;;;;;8.70;6.13;;;;;;;;;;5113070;28;20487;-80
2023/05/25 01:25:45;;;;;;;8.38;6.30;;;;;;;;;;5111292;28;20027;-80
2023/05/25 01:28:17;;;;;;;8.20;5.93;;;;;;;;;;5112846;28;20484;-77
2023/05/25 01:30:45;;;;;;;7.10;5.85;;;;;;;;;;5113193;28;20051;-78
2023/05/25 01:33:13;;;;;;;8.75;6.70;;;;;;;;;;5112734;28;20058;-78
2023/05/25 01:35:40;;;;;;;10.13;6.60;;;;;;;;;;5112768;28;20023;-80
2023/05/25 01:38:07;;;;;;;7.47;6.22;;;;;;;;;;5112341;28;20036;-80
2023/05/25 01:40:33;;;;;;;9.57;6.38;;;;;;;;;;5110801;28;20096;-79
2023/05/25 01:42:59;;;;;;;8.57;6.50;;;;;;;;;;5102300;28;20036;-80
2023/05/25 01:45:26;;;;;;;8.85;6.63;;;;;;;;;;5113341;28;20465;-79
2023/05/25 01:47:55;;;;;;;9.55;6.53;;;;;;;;;;5111772;28;20039;-79
2023/05/25 01:50:33;;;;;;;8.27;6.40;;;;;;;;;;5113821;28;20073;-81
2023/05/25 01:53:02;;;;;;;8.70;6.10;;;;;;;;;;5113522;28;20027;-80
2023/05/25 01:55:32;;;;;;;8.52;6.55;;;;;;;;;;5113620;28;20035;-81
2023/05/25 01:57:58;;;;;;;8.55;6.50;;;;;;;;;;5113581;28;20752;-79
2023/05/25 02:00:30;;;;;;;10.50;6.28;;;;;;;;;;5093431;28;20704;-80
2023/05/25 02:02:56;;;;;;;9.57;6.43;;;;;;;;;;5093048;28;20561;-79
2023/05/25 02:05:22;;;;;;;12.60;6.70;;;;;;;;;;5092653;28;20162;-80
2023/05/25 02:07:48;;;;;;;8.25;6.35;;;;;;;;;;5092425;28;20027;-80
2023/05/25 02:10:14;;;;;;;8.68;6.60;;;;;;;;;;5091363;28;20024;-81
2023/05/25 02:12:40;;;;;;;11.23;6.50;;;;;;;;;;5102288;28;20048;-79
2023/05/25 02:15:06;;;;;;;10.57;7.00;;;;;;;;;;5092652;28;20396;-77
2023/05/25 02:17:32;;;;;;;9.25;6.85;;;;;;;;;;5092663;28;20024;-79
2023/05/25 02:19:58;;;;;;;9.02;6.88;;;;;;;;;;5091359;28;20030;-80
2023/05/25 02:22:24;;;;;;;9.57;7.00;;;;;;;;;;5099736;28;20032;-81
2023/05/25 02:24:50;;;;;;;11.27;7.30;;;;;;;;;;5113476;28;20114;-79
2023/05/25 02:27:16;;;;;;;9.50;7.03;;;;;;;;;;5102465;28;20112;-79
2023/05/25 02:29:42;;;;;;;9.05;6.93;;;;;;;;;;5092443;28;20020;-80
2023/05/25 02:32:09;;;;;;;10.25;6.82;;;;;;;;;;5092526;28;20157;-80
2023/05/25 02:34:35;;;;;;;13.07;7.25;;;;;;;;;;5093436;28;20024;-81
2023/05/25 02:37:01;;;;;;;10.15;7.60;;;;;;;;;;5092312;28;20030;-79
2023/05/25 02:39:27;;;;;;;10.90;7.18;;;;;;;;;;5092244;28;20024;-79
2023/05/25 02:41:54;;;;;;;9.77;7.25;;;;;;;;;;5100887;28;20084;-77
2023/05/25 02:44:20;;;;;;;10.75;7.50;;;;;;;;;;5095452;28;20024;-77
2023/05/25 02:46:46;;;;;;;12.80;7.60;;;;;;;;;;5091963;28;20059;-79
2023/05/25 02:49:12;;;;;;;13.60;8.10;;;;;;;;;;5092085;28;20046;-76
2023/05/25 02:51:38;;;;;;;10.85;8.15;;;;;;;;;;5091992;28;20461;-80
2023/05/25 02:54:04;;;;;;;10.75;8.40;;;;;;;;;;5091653;28;20051;-79
2023/05/25 02:56:30;;;;;;;10.10;7.90;;;;;;;;;;5093100;28;20531;-78
2023/05/25 02:58:56;;;;;;;10.80;8.02;;;;;;;;;;5091744;28;20462;-78
2023/05/25 03:01:24;;;;;;;10.43;8.07;;;;;;;;;;5109922;28;20032;-80
2023/05/25 03:03:53;;;;;;;10.82;8.15;;;;;;;;;;5110876;28;20046;-76
2023/05/25 03:06:22;;;;;;;12.07;8.13;;;;;;;;;;5098960;28;20028;-79
2023/05/25 03:08:48;;;;;;;11.35;7.95;;;;;;;;;;5090900;28;20028;-77
2023/05/25 03:11:14;;;;;;;15.27;8.60;;;;;;;;;;5095250;28;20046;-74
2023/05/25 03:13:40;;;;;;;12.30;7.88;;;;;;;;;;5101203;28;20115;-77
2023/05/25 03:16:07;;;;;;;11.35;8.32;;;;;;;;;;5107882;28;20028;-79
2023/05/25 03:18:33;;;;;;;11.45;8.32;;;;;;;;;;5105946;28;20028;-79
2023/05/25 03:20:59;;;;;;;11.65;8.40;;;;;;;;;;5116369;28;20092;-76
2023/05/25 03:23:25;;;;;;;10.73;8.13;;;;;;;;;;5107711;28;20112;-78
2023/05/25 03:25:51;;;;;;;10.20;7.93;;;;;;;;;;5094320;28;20032;-80
2023/05/25 03:28:17;;;;;;;12.27;8.18;;;;;;;;;;5095855;28;20024;-77
2023/05/25 03:30:43;;;;;;;12.82;8.18;;;;;;;;;;5096244;28;20024;-78
2023/05/25 03:33:12;;;;;;;10.95;8.57;;;;;;;;;;5096563;28;20101;-80
2023/05/25 03:35:38;;;;;;;10.07;7.90;;;;;;;;;;5108512;28;20032;-79
2023/05/25 03:38:04;;;;;;;11.20;8.20;;;;;;;;;;5105832;28;20035;-80
2023/05/25 03:40:30;;;;;;;13.43;8.02;;;;;;;;;;5104826;28;20711;-80
2023/05/25 03:42:57;;;;;;;10.65;8.23;;;;;;;;;;5103248;28;20119;-78
2023/05/25 03:45:23;;;;;;;12.65;8.13;;;;;;;;;;5115993;28;20612;-74
2023/05/25 03:47:49;;;;;;;12.27;8.40;;;;;;;;;;5115866;28;20110;-81
2023/05/25 03:50:15;;;;;;;14.55;8.90;;;;;;;;;;5116066;28;20028;-81
2023/05/25 03:52:41;;;;;;;14.93;8.80;;;;;;;;;;5116385;28;20043;-77
2023/05/25 03:55:07;;;;;;;11.00;7.82;;;;;;;;;;5116315;28;20016;-81
2023/05/25 03:57:33;;;;;;;12.63;8.82;;;;;;;;;;5116116;28;20070;-79
2023/05/25 03:59:59;;;;;;;14.25;9.30;;;;;;;;;;5116264;28;20024;-80
2023/05/25 04:02:25;;;;;;;14.85;8.63;;;;;;;;;;5114444;28;20469;-80
2023/05/25 04:04:52;;;;;;;14.00;9.02;;;;;;;;;;5114722;28;20015;-79
2023/05/25 04:07:19;;;;;;;12.45;8.68;;;;;;;;;;5110732;28;20028;-78
2023/05/25 04:09:45;;;;;;;11.20;8.60;;;;;;;;;;5105832;28;20015;-79
2023/05/25 04:12:11;;;;;;;14.23;8.88;;;;;;;;;;5107107;28;20126;-80
2023/05/25 04:14:37;;;;;;;12.68;8.55;;;;;;;;;;5098993;28;20023;-77
2023/05/25 04:17:03;;;;;;;11.30;8.55;;;;;;;;;;5111343;28;20039;-76
2023/05/25 04:19:29;;;;;;;11.35;8.50;;;;;;;;;;5106633;28;20016;-81
2023/05/25 04:21:55;;;;;;;13.57;8.77;;;;;;;;;;5116484;28;20059;-79
2023/05/25 04:24:21;;;;;;;14.05;9.52;;;;;;;;;;5115830;28;20050;-76
2023/05/25 04:26:49;;;;;;;13.88;9.23;;;;;;;;;;5116060;28;20465;-79
2023/05/25 04:29:15;;;;;;;12.18;9.07;;;;;;;;;;5114815;28;20028;-80
2023/05/25 04:31:44;;;;;;;12.45;8.80;;;;;;;;;;5095405;28;20023;-81
2023/05/25 04:34:10;;;;;;;12.88;9.05;;;;;;;;;;5096051;28;20426;-80
2023/05/25 04:36:37;;;;;;;10.98;8.18;;;;;;;;;;5099940;28;20045;-77
2023/05/25 04:39:04;;;;;;;11.48;8.57;;;435.90;2355.20;;;;;;5097259;28;20032;-78
2023/05/25 04:41:30;;;;;;;12.65;9.00;;;435.90;2355.20;;;;;;5099259;28;20032;-76
2023/05/25 04:43:56;;;;;;;12.43;9.38;;;;;;;;;;5100934;28;20089;-78
2023/05/25 04:46:22;;;;;;;12.20;8.90;;;436.00;2355.20;;;;;;5099305;28;20561;-80
2023/05/25 04:48:47;;;;;;;12.40;9.00;;;435.80;2355.20;;;;;;5113167;28;20039;-76
2023/05/25 04:51:13;;;;;;;13.15;9.70;;;435.80;2355.20;;;;;;5116660;28;20034;-81
2023/05/25 04:53:39;;;;;;;14.43;9.23;;;435.90;2355.20;;;;;;5121724;28;20031;-77
2023/05/25 04:56:05;;;;;;;12.63;8.70;;;435.80;2355.20;;;;;;5119463;28;20130;-75
2023/05/25 04:58:32;;;;;;;12.88;9.27;;;436.00;2355.20;;;;;;5103681;28;20020;-76
2023/05/25 05:00:58;;;;;;;13.20;9.27;;;;;;;;;;5118292;28;20381;-79
2023/05/25 05:03:24;;;;;;;14.65;9.50;;;461.00;2380.80;;;;;;5113964;28;20027;-80
2023/05/25 05:05:50;;;;;;;12.02;9.30;;;460.90;2380.80;;;;;;5111007;28;20108;-75
2023/05/25 05:08:16;;;;;;;14.80;8.90;;;461.00;2380.80;;;;;;5118018;28;20031;-78
2023/05/25 05:10:41;;;;;;;13.48;9.05;;;461.00;2380.80;;;;;;5115924;28;20576;-75
2023/05/25 05:13:07;;;;;;;12.25;9.43;;;;;;;;;;5097955;28;20052;-80
2023/05/25 05:15:33;;;;;;;13.45;9.25;;;;;;;;;;5102741;28;20358;-81
2023/05/25 05:18:00;;;;;;;12.82;9.40;;;;;;;;;;5112966;28;20031;-75
2023/05/25 05:20:26;;;;;;;15.70;9.70;;;;;;;;;;5113546;28;20567;-74
2023/05/25 05:22:53;;;;;;;14.93;9.38;;;;;;;;;;5121601;28;20076;-74
2023/05/25 05:25:19;;;;;;;14.10;9.70;;;;;;;;;;5107312;28;20020;-77
2023/05/25 05:27:45;;;;;;;12.88;9.32;;;;;;;;;;5118461;28;20027;-81
2023/05/25 05:30:11;;;;;;;13.82;9.68;;;;;;;;;;5117415;28;20043;-80
2023/05/25 05:32:37;;;;;;;12.23;9.32;;;;;;;;;;5115930;28;20019;-77
2023/05/25 05:35:22;;;;;;;12.73;10.07;;;;;;;;;;5117090;28;20027;-83
2023/05/25 05:37:48;;;;;;;13.00;9.07;;;486.60;2380.80;;;;;;5105438;28;20108;-78
2023/05/25 05:40:14;;;;;;;13.15;9.85;;;486.60;2380.80;;;;;;5111668;28;20472;-78
2023/05/25 05:42:41;;;;;;;15.00;9.63;;;;;;;;;;5112589;28;20035;-75
2023/05/25 05:45:07;;;;;;;13.65;9.48;;;487.10;2380.80;;;;;;5093758;28;20027;-75
2023/05/25 05:47:32;;;;;;;12.40;9.10;;;486.90;2380.80;;;;;;5101822;28;20027;-76
2023/05/25 05:49:58;;;;;;;13.60;9.43;;;486.80;2380.80;;;;;;5110447;28;20019;-73
2023/05/25 05:52:24;;;;;;;19.00;9.57;;;487.00;2380.80;;;;;;5116551;28;20024;-78
2023/05/25 05:54:50;;;;;;;11.82;9.30;;;487.10;2380.80;;;;;;5102619;28;20024;-77
2023/05/25 05:57:15;;;;;;;11.98;8.88;;;487.20;2380.80;;;;;;5103076;28;20084;-78
2023/05/25 05:59:41;;;;;;;12.27;9.05;;;487.30;2380.80;;;;;;5112723;28;20023;-76
2023/05/25 06:02:07;;;;;;;13.05;9.02;;;487.20;2380.80;;;;;;5117132;28;20043;-79
2023/05/25 06:04:33;;;;;;;12.95;9.43;;;;;;;;;;5115280;28;20076;-79
2023/05/25 06:06:59;;;;;;;12.65;8.82;;;;;;;;;;5121524;28;20361;-81
2023/05/25 06:09:25;;;;;;;12.70;9.07;;;;;;;;;;5124647;28;20030;-82
2023/05/25 06:11:52;;;;;;;11.95;9.20;;;;;;;;;;5117599;28;20404;-81
2023/05/25 06:14:17;;;;;;;13.00;9.20;;;512.60;2380.80;;;;;;5119940;28;20027;-80
2023/05/25 06:16:43;;;;;;;13.75;9.27;;;512.50;2380.80;;;;;;5126759;28;20024;-77
2023/05/25 06:19:09;;;;;;;13.05;8.93;;;;;;;;;;5118397;28;20107;-73
2023/05/25 06:21:36;;;;;;;13.15;8.80;;;;;;;;;;5121659;28;20031;-80
2023/05/25 06:24:02;;;;;;;13.85;8.65;;;537.80;2406.40;;;;;;5119173;28;20016;-78
2023/05/25 06:26:28;;;;;;;12.18;8.95;;;537.70;2406.40;;;;;;5127764;28;20024;-80
2023/05/25 06:28:55;;;;;;;13.27;9.20;;;;;;;;;;5127732;28;20024;-77
2023/05/25 06:31:21;;;;;;;12.48;8.50;;;;;;;;;;5119123;28;20132;-79
2023/05/25 06:33:47;;;;;;;11.93;8.63;;;;;;;;;;5109682;28;20039;-80
2023/05/25 06:36:14;;;;;;;11.07;8.85;;;;;;;;;;5118106;28;20020;-73
2023/05/25 06:38:40;;;;;;;11.05;8.55;;;;;;;;;;5127880;28;20037;-78
2023/05/25 06:41:08;;;;;;;11.18;8.70;;;;;;;;;;5122180;28;20823;-77
2023/05/25 06:43:34;;;;;;;11.70;8.68;;;;;;;;;;5120847;28;20032;-73
2023/05/25 06:46:00;;;;;;;10.82;8.23;;;;;;;;;;5121672;28;20050;-81
2023/05/25 06:48:26;;;;;;;10.63;8.38;;;;;;;;;;5122933;28;20102;-78
2023/05/25 06:51:12;;;;;;;12.15;9.20;;;;;;;;;;5117099;28;20054;-73
2023/05/25 06:53:38;;;;;;;10.20;8.68;;;;;;;;;;5118077;28;20015;-76
2023/05/25 06:56:05;;;;;;;12.25;8.45;;;;;;;;;;5119202;28;20047;-76
2023/05/25 06:58:31;;;;;;;11.65;8.25;;;;;;;;;;5121862;28;20027;-76
2023/05/25 07:00:59;;;;;;;13.02;9.02;;;;;;;;;;5125004;28;20391;-81
2023/05/25 07:03:25;;;;;;;11.00;8.60;;;;;;;;;;5123519;28;20389;-78
2023/05/25 07:05:51;;;;;;;13.07;8.43;;;;;;;;;;5116100;28;20020;-73
2023/05/25 07:08:17;;;;;;;10.65;8.60;;;;;;;;;;5111371;28;20028;-76
2023/05/25 07:10:43;;;;;;;13.68;9.05;;;;;;;;;;5112796;28;20031;-79
2023/05/25 07:13:11;;;;;;;11.75;8.60;;;;;;;;;;5111531;28;20519;-77
2023/05/25 07:15:37;;;;;;;13.55;8.73;;;;;;;;;;5111834;28;20035;-76
2023/05/25 07:18:03;;;;;;;13.18;8.70;;;;;;;;;;5111320;28;20020;-79
2023/05/25 07:20:29;;;;;;;10.40;7.97;;;;;;;;;;5110690;28;20012;-76
2023/05/25 07:22:55;;;;;;;11.77;8.43;;;;;;;;;;5124092;28;20031;-75
2023/05/25 07:25:21;;;;;;;12.15;8.43;;;;;;;;;;5114031;28;20393;-78
2023/05/25 07:27:49;;;;;;;10.60;8.90;;;;;;;;;;5110341;28;20088;-80
2023/05/25 07:30:15;;;;;;;10.55;8.50;;;;;;;;;;5114436;28;20477;-80
2023/05/25 07:32:41;;;;;;;12.70;8.85;;;;;;;;;;5120687;28;20051;-77
2023/05/25 07:35:07;;;;;;;9.40;8.23;;;;;;;;;;5129427;28;20028;-76
2023/05/25 07:37:33;;;;;;;13.57;8.00;;;;;;;;;;5130255;28;20603;-81
2023/05/25 07:39:59;;;;;;;10.13;8.07;;;;;;;;;;5126676;28;20027;-78
2023/05/25 07:42:32;;;;;;;10.10;7.65;;;;;;;;;;5114689;28;20016;-79
2023/05/25 07:44:58;;;;;;;9.88;7.82;;;;;;;;;;5121087;28;20031;-76
2023/05/25 07:47:25;;;;;;;11.20;7.68;;;;;;;;;;5112173;28;20019;-75
2023/05/25 07:49:51;;;;;;;11.77;7.70;;;;;;;;;;5106118;28;20047;-76
2023/05/25 07:52:18;;;;;;;10.50;8.27;;;;;;;;;;5100038;28;20047;-73
2023/05/25 07:54:44;;;;;;;10.45;8.20;;;;;;;;;;5090765;28;20028;-73
2023/05/25 07:57:11;;;;;;;11.20;7.45;;;;;;;;;;5091125;28;20025;-73
2023/05/25 07:59:37;;;;;;;9.50;7.20;;;;;;;;;;5097801;28;20113;-74
2023/05/25 08:02:03;;;;;;;9.60;7.82;;;;;;;;;;5101722;28;20048;-74
2023/05/25 08:04:32;;;;;;;11.07;7.60;;;;;;;;;;5091776;28;20024;-72
2023/05/25 08:06:58;;;;;;;9.90;7.38;;;;;;;;;;5093044;28;20032;-72
2023/05/25 08:09:24;;;;;;;9.15;7.18;;;;;;;;;;5094582;28;20020;-72
2023/05/25 08:11:50;;;;;;;10.23;7.30;;;;;;;;;;5094874;28;20044;-73
2023/05/25 08:14:16;;;;;;;11.30;7.50;;;;;;;;;;5095689;28;20028;-75
2023/05/25 08:16:42;;;;;;;11.70;7.28;;;;;;;;;;5107209;28;20426;-74
2023/05/25 08:19:08;;;;;;;12.88;7.63;;;;;;;;;;5116085;28;20062;-72
2023/05/25 08:21:36;;;;;;;8.80;7.47;;;;;;;;;;5117900;28;20097;-75
2023/05/25 08:24:07;;;;;;;10.23;7.32;;;;;;;;;;5115330;28;20100;-73
2023/05/25 08:26:35;;;;;;;8.93;6.90;;;;;;;;;;5114754;28;20052;-73
2023/05/25 08:29:01;;;;;;;9.32;7.20;;;;;;;;;;5114936;27;20059;-73
2023/05/25 08:31:27;;;;;;;10.48;7.75;;;;;;;;;;5127993;28;20059;-76
2023/05/25 08:33:53;;;;;;;10.43;7.68;;;;;;;;;;5123721;28;20046;-77
2023/05/25 08:36:19;;;;;;;7.70;6.38;;;;;;;;;;5128571;28;20034;-78
2023/05/25 08:38:45;;;;;;;9.25;6.20;;;;;;;;;;5131029;28;20522;-80
2023/05/25 08:41:12;;;;;;;7.93;6.72;;;;;;;;;;5129941;28;20035;-78
2023/05/25 08:43:40;;;;;;;9.38;6.50;;;665.60;2432.00;;;;;;5127487;28;20104;-78
2023/05/25 08:46:06;;;;;;;9.20;7.28;;;;;;;;;;5121935;28;20040;-75
2023/05/25 08:48:36;;;;;;;9.07;6.63;;;;;;;;;;5127148;28;20024;-74
2023/05/25 08:51:04;;;;;;;9.95;6.22;;;;;;;;;;5108811;28;20115;-78
2023/05/25 08:53:34;;;;;;;7.78;6.40;;;;;;;;;;5113261;28;20088;-80
2023/05/25 08:56:00;;;;;;;7.95;6.47;;;;;;;;;;5110596;28;20115;-80
2023/05/25 08:58:32;;;;;;;8.52;6.40;;;;;;;;;;5110565;28;20084;-76
2023/05/25 09:01:00;;;;;;;9.32;6.07;;;;;;;;;;5130864;28;20531;-81
2023/05/25 09:03:27;;;;;;;8.57;6.60;;;;;;;;;;5130909;28;20039;-79
2023/05/25 09:05:54;;;;;;;9.65;6.28;;;;;;;;;;5116026;28;20021;-79
2023/05/25 09:08:21;;;;;;;10.27;6.70;;;640.50;2432.00;;;;;;5116390;28;20076;-75
2023/05/25 09:10:49;;;;;;;9.93;6.40;;;640.40;2432.00;;;;;;5119838;28;20026;-73
2023/05/25 09:13:15;;;;;;;7.72;5.70;;;640.80;2432.00;;;;;;5119766;28;20114;-75
2023/05/25 09:15:41;;;;;;;10.25;6.10;;;640.80;2432.00;;;;;;5102642;28;20032;-76
2023/05/25 09:18:07;;;;;;;9.15;5.82;;;640.70;2432.00;;;;;;5103449;28;20121;-78
2023/05/25 09:20:32;;;;;;;9.65;5.97;;;640.80;2432.00;;;;;;5111393;28;20023;-75
2023/05/25 09:23:02;;;;;;;8.98;5.90;;;640.80;2432.00;;;;;;5113640;28;20461;-78
2023/05/25 09:25:28;;;;;;;7.72;5.40;;;665.80;2432.00;;;;;;5115211;28;20023;-74
2023/05/25 09:27:57;;;;;;;11.38;5.88;;;665.90;2432.00;;;;;;5099329;28;20032;-73
2023/05/25 09:30:23;;;;;;;6.97;5.53;;;665.80;2406.40;;;;;;5095105;28;20605;-75
2023/05/25 09:32:50;;;;;;;7.28;5.63;;;665.60;2406.40;;;;;;5106076;28;20020;-78
2023/05/25 09:35:16;;;;;;;7.15;5.63;;;665.80;2380.80;;;;;;5115077;27;20028;-74
2023/05/25 09:37:43;;;;;;;7.88;6.00;;;;;;;;;;5115285;28;20031;-75
2023/05/25 09:40:10;;;;;;;7.20;5.90;;;691.30;2304.00;;;;;;5117146;28;20110;-76
2023/05/25 09:42:36;;;;;;;9.65;6.20;;;666.50;2252.80;;;;;;5110737;28;20092;-76
2023/05/25 09:45:03;;;;;;;6.85;5.60;;;666.20;2278.40;;;;;;5118968;28;20036;-76
2023/05/25 09:47:29;;;;;;;6.82;5.78;;;691.20;2278.40;;;;;;5113360;28;20073;-73
2023/05/25 09:49:55;;;;;;;6.90;6.03;;;691.70;2227.20;;;;;;5098989;28;20023;-75
2023/05/25 09:52:22;;;;;;;8.02;6.38;;;;;;;;;;5113215;27;20500;-73
2023/05/25 09:54:51;;;;;;;10.15;5.85;;;691.60;2201.60;;;;;;5114672;28;20023;-73
2023/05/25 09:57:19;;;;;;;8.98;5.88;;;691.50;2201.60;;;;;;5104435;28;20110;-73
2023/05/25 09:59:45;;;;;;;6.22;5.60;;;691.30;2227.20;;;;;;5114280;28;20074;-74
2023/05/25 10:02:12;;;;;;;7.72;6.30;;;691.30;2227.20;;;;;;5107738;28;20059;-76
2023/05/25 10:04:38;;;;;;;8.10;6.15;;;691.70;2124.80;;;;;;5112076;28;20031;-77
2023/05/25 10:07:04;;;;;;;7.45;6.60;;;692.00;2099.20;;;;;;5112742;28;20473;-78
2023/05/25 10:09:34;;;;;;;9.82;7.88;;;692.00;2022.40;;;;;;5094594;28;20078;-78
2023/05/25 10:12:01;;;;;;;8.88;7.10;;;691.70;2022.40;;;;;;5095342;28;20090;-74
2023/05/25 10:14:28;;;;;;;7.70;5.93;;;691.40;2099.20;;;;;;5117512;28;20012;-77
2023/05/25 10:16:56;;;;;;;9.35;6.22;;;692.00;2099.20;;;;;;5115183;28;20027;-82
2023/05/25 10:19:40;;;;;;;7.88;5.50;;;691.80;2124.80;;;;;;5112892;28;20437;-78
2023/05/25 10:22:35;;;;;;;9.23;6.20;;;691.70;2099.20;;;;;;5113022;28;20122;-82
2023/05/25 10:25:25;;;;;;;6.15;5.53;;;692.00;2022.40;;;;;;5118167;28;20114;-82
2023/05/25 10:28:21;;;;;;;7.30;5.90;;;716.90;1971.20;;;;;;5125126;28;20019;-83
2023/05/25 10:30:48;;;;;;;9.73;6.45;;;716.80;1971.20;;;;;;5124314;28;20492;-81
2023/05/25 10:33:14;;;;;;;6.63;5.50;;;717.40;1996.80;;;;;;5126335;28;20027;-78
2023/05/25 10:35:42;;;;;;;7.90;5.90;;;717.30;1971.20;;;;;;5126354;28;20026;-78
2023/05/25 10:38:11;;;;;;;7.85;6.40;;;717.40;1945.60;;;;;;5119547;28;20465;-77
2023/05/25 10:40:37;;;;;;;8.80;5.82;;;717.70;1945.60;;;;;;5100578;28;20554;-75
2023/05/25 10:43:04;;;;;;;7.35;6.07;;;;;;;;;;5113501;28;20036;-80
2023/05/25 10:45:31;;;;;;;7.03;6.18;;;717.30;1920.00;;;;;;5111582;28;20132;-83
2023/05/25 10:47:57;;;;;;;8.70;5.93;;;717.00;1945.60;;;;;;5107829;28;20042;-77
2023/05/25 10:50:25;;;;;;;7.85;7.05;;;716.80;1920.00;;;;;;5120423;28;20693;-81
2023/05/25 10:53:07;;;;;;;8.63;7.72;;;;;;;;;;5106843;28;20042;-75
2023/05/25 10:55:51;;;;;;;11.00;6.95;;;717.60;1920.00;;;;;;5094069;28;20493;-75
2023/05/25 10:58:18;;;;;;;7.53;6.15;;;717.50;1945.60;;;;;;5095515;28;20035;-77
2023/05/25 11:01:05;;;;;;;8.50;6.45;;;717.70;1920.00;;;;;;5095342;28;20032;-76
2023/05/25 11:03:43;;;;;;;10.07;6.50;;;742.90;1894.40;;;;;;5095458;28;20043;-78
2023/05/25 11:06:10;;;;;;;9.32;6.72;;;742.80;1868.80;;;;;;5114323;28;20031;-75
2023/05/25 11:08:59;;;;;;;8.57;7.00;;;742.90;1817.60;;;;;;5122036;28;20031;-74
2023/05/25 11:11:49;;;;;;;7.85;7.05;;;;;;;;;;5115905;28;20448;-79
2023/05/25 11:14:22;;;;;;;7.78;6.60;;;;;;;;;;5101854;28;20640;-78
2023/05/25 11:17:05;;;;;;;8.88;6.70;;;742.80;1792.00;;;;;;5113416;28;20422;-74
2023/05/25 11:19:47;;;;;;;9.95;6.78;;;742.40;1817.60;;;;;;5115463;28;20039;-75
2023/05/25 11:22:36;;;;;;;8.52;7.72;;;742.70;1817.60;;;;;;5113596;28;20040;-79
2023/05/25 11:25:23;;;;;;;8.52;7.63;;;742.80;1792.00;;;;;;5033874;28;20052;-81
2023/05/25 11:27:54;;;;;;;8.10;7.18;;;742.80;1817.60;;;;;;5035680;28;20026;-80
2023/05/25 11:30:26;;;;;;;8.20;7.40;;;742.40;1843.20;;;;;;5014351;28;20034;-82
2023/05/25 11:32:53;;;;;;;8.75;7.35;;;717.40;1843.20;;;;;;5011968;28;20548;-80
2023/05/25 11:35:37;;;;;;;9.80;8.18;;;717.10;1894.40;;;;;;4996221;28;20072;-81
2023/05/25 11:38:05;;;;;;;8.77;7.85;;;717.00;1894.40;;;;;;4997073;28;20073;-76
2023/05/25 11:40:31;;;;;;;8.90;7.97;;;717.50;1843.20;;;;;;5020878;28;20030;-82
2023/05/25 11:42:59;;;;;;;7.60;6.75;;;717.70;1792.00;;;;;;5024634;28;20053;-81
2023/05/25 11:45:28;;;;;;;9.52;8.43;;;742.70;1817.60;;;;;;5023235;28;20029;-82
2023/05/25 11:47:53;;;;;;;9.00;8.10;;;743.00;1766.40;;;;;;5018788;28;20064;-77
2023/05/25 11:50:20;;;;;;;10.95;10.02;;;743.20;1689.60;;;;;;5013642;28;20500;-77
2023/05/25 11:52:46;;;;;;;11.13;10.23;;;768.40;1715.20;;;;;;5013308;28;20111;-77
2023/05/25 11:55:13;;;;;;;14.25;12.95;;;768.30;1715.20;;;;;;5004852;28;20072;-77
2023/05/25 11:57:39;;;;;;;12.60;11.48;;;742.90;1740.80;;;;;;5009734;28;20167;-73
2023/05/25 12:00:10;;;;;;;11.15;10.25;;;742.50;1792.00;;;;;;5013694;28;20052;-77
2023/05/25 12:02:42;;;;;;;11.13;10.23;;;717.70;1715.20;;;;;;5086116;28;20071;-82
2023/05/25 12:05:08;;;;;;;14.07;12.85;;;742.70;1740.80;;;;;;5091398;28;20016;-77
2023/05/25 12:07:34;;;;;;;12.95;11.68;;;743.00;1715.20;;;;;;5097211;28;20039;-78
2023/05/25 12:10:04;;;;;;;11.85;10.85;;;768.00;1715.20;;;;;;5096523;28;20031;-78
2023/05/25 12:12:43;;;;;;;16.13;14.65;;;743.00;1715.20;;;;;;5080399;28;20067;-77
2023/05/25 12:15:15;;;;;;;13.57;12.50;;;743.00;1740.80;;;;;;5112949;28;20081;-75
2023/05/25 12:17:42;;;;;;;16.90;15.70;;;743.20;1715.20;;;;;;5097545;28;20074;-75
2023/05/25 12:20:09;;;;;;;24.55;22.60;;;743.20;1664.00;;;;;;5087689;28;20075;-75
2023/05/25 12:22:36;;;;;;;16.92;15.52;;;743.30;1689.60;;;;;;5091509;28;20474;-77
2023/05/25 12:25:04;;;;;;;25.88;24.23;;;743.20;1664.00;;;;;;5099250;28;20046;-76
2023/05/25 12:27:30;;;;;;;18.83;17.33;;;768.30;1638.40;;;;;;5097862;28;20028;-78
2023/05/25 12:29:58;;;;;;;25.85;24.05;;;768.30;1638.40;;;;;;5093583;28;20478;-72
2023/05/25 12:32:23;;;;;;;30.50;28.52;;;743.20;1612.80;;;;;;5090465;28;20542;-73
2023/05/25 12:34:49;;;;;;;27.38;25.67;;;743.20;1638.40;;;;;;5091036;28;20031;-75
2023/05/25 12:37:20;;;;;;;19.98;18.55;;;743.30;1638.40;;;;;;5090423;28;20032;-75
2023/05/25 12:39:46;;;;;;;24.83;23.20;;;768.30;1638.40;;;;;;5093267;28;20489;-74
2023/05/25 12:42:14;;;;;;;31.23;29.17;;;768.50;1587.20;;;;;;5092552;28;20481;-74
2023/05/25 12:44:40;;;;;;;41.63;39.00;;;768.70;1536.00;;;;;;5092932;28;20516;-75
2023/05/25 12:47:18;;;;;;;39.33;36.83;;;768.50;1510.40;;;;;;5092216;28;20039;-75
2023/05/25 12:49:51;;;;;;;39.25;36.85;;;768.60;1536.00;;;;;;5089489;28;20530;-79
2023/05/25 12:52:33;;;;;;;36.67;34.28;;;768.50;1561.60;;;;;;5095657;28;20054;-73
2023/05/25 12:55:17;;;;;;;39.40;36.88;;;768.40;1561.60;;;;;;5089472;28;20036;-75
2023/05/25 12:57:43;;;;;;;;;;;768.20;1587.20;;;;;;5095449;28;20062;-76
2023/05/25 13:00:09;;;;;;;45.67;42.88;;;768.00;1536.00;;;;;;5088470;28;20007;-79
2023/05/25 13:02:35;;;;;;;38.15;35.83;;;768.40;1536.00;;;;;;5092656;28;20024;-78
2023/05/25 13:05:00;;;;;;;37.83;35.42;;;768.50;1536.00;;;;;;5100016;28;20028;-77
2023/05/25 13:07:26;;;;;;;41.00;38.35;;;768.50;1536.00;;;;;;5107149;28;20674;-79
2023/05/25 13:09:52;;;;;;;29.27;27.48;;;768.80;1536.00;;;;;;5084106;28;20098;-81
2023/05/25 13:12:18;;;;;;;35.97;33.72;;;793.60;1612.80;;;;;;5106013;28;20059;-76
2023/05/25 13:14:44;;;;;;;34.83;32.60;;;768.80;1561.60;;;;;;5105496;28;20039;-72
2023/05/25 13:17:09;;;;;;;33.17;30.85;;;768.70;1561.60;;;;;;5105562;28;20077;-75
2023/05/25 13:19:35;;;;;;;35.78;33.47;;;768.60;1587.20;;;;;;5095963;28;20035;-78
2023/05/25 13:22:01;;;;;;;33.85;31.75;;;768.40;1561.60;;;;;;5093167;28;20116;-76
2023/05/25 13:24:27;;;;;;;50.75;47.58;;;768.60;1587.20;;;;;;5093213;28;20027;-76
2023/05/25 13:26:52;;;;;;;36.50;34.22;;;768.50;1561.60;;;;;;5095296;28;20044;-78
2023/05/25 13:29:18;;;;;;;48.50;45.45;;;768.70;1561.60;;;;;;5103875;28;20024;-75
2023/05/25 13:31:45;;;;;;;40.45;37.70;;;768.70;1561.60;;;;;;5092207;28;20036;-77
2023/05/25 13:34:11;;;;;;;38.17;35.67;;;768.40;1561.60;;;;;;5097804;28;20024;-72
2023/05/25 13:36:37;;;;;;;31.10;29.00;;;768.40;1587.20;;;;;;5091311;28;20047;-79